createdAt,value
2022-10-28T00:00:06.689Z,7.5
2022-10-28T00:02:10.249Z,6.6
2022-10-28T00:04:16.836Z,7.5
2022-10-28T00:06:20.188Z,7.1
2022-10-28T00:08:23.656Z,5.8
2022-10-28T00:16:37.539Z,6.7
2022-10-28T00:20:47.605Z,6.6
2022-10-28T00:22:51.086Z,7.8
2022-10-28T00:23:54.357Z,8.2
2022-10-28T00:25:57.838Z,7.4
2022-10-28T00:28:01.330Z,8.1
2022-10-28T00:30:04.816Z,7.9
2022-10-28T00:32:11.388Z,10.1
2022-10-28T00:34:14.854Z,7.9
2022-10-28T00:36:18.310Z,8.5
2022-10-28T00:38:21.765Z,8.8
2022-10-28T00:40:25.198Z,9
2022-10-28T00:42:28.716Z,10.3
2022-10-28T00:44:32.200Z,11.9
2022-10-28T00:46:38.929Z,11.5
2022-10-28T00:48:42.273Z,11.5
2022-10-28T00:50:45.795Z,11.7
2022-10-28T00:52:49.294Z,12.5
2022-10-28T00:54:52.774Z,12.8
2022-10-28T00:56:56.253Z,13.4
2022-10-28T00:58:59.768Z,13.2
2022-10-28T01:01:06.356Z,12.3
2022-10-28T01:03:09.866Z,13.6
2022-10-28T01:05:13.363Z,12.2
2022-10-28T01:07:16.842Z,13.9
2022-10-28T01:09:20.368Z,14.9
2022-10-28T01:11:23.843Z,15.2
2022-10-28T01:13:27.326Z,13.8
2022-10-28T01:15:33.904Z,15.6
2022-10-28T01:17:37.412Z,15.6
2022-10-28T01:19:40.906Z,14.9
2022-10-28T01:22:03.104Z,14.8
2022-10-28T01:24:06.553Z,15.1
2022-10-28T01:26:10.065Z,14.4
2022-10-28T01:28:16.624Z,15.6
2022-10-28T01:30:20.133Z,16.1
2022-10-28T01:32:23.600Z,15
2022-10-28T01:34:27.057Z,15.3
2022-10-28T01:36:30.557Z,15.3
2022-10-28T01:38:34.024Z,13.9
2022-10-28T01:40:37.582Z,13.3
2022-10-28T01:42:44.120Z,12.9
2022-10-28T01:44:47.635Z,11
2022-10-28T01:46:51.168Z,10.8
2022-10-28T01:48:54.634Z,12.6
2022-10-28T01:50:58.060Z,13.5
2022-10-28T01:53:01.575Z,12.8
2022-10-28T01:55:05.048Z,13.4
2022-10-28T01:57:11.591Z,15.1
2022-10-28T01:59:15.066Z,14.2
2022-10-28T02:01:18.640Z,12
2022-10-28T02:03:22.021Z,12.1
2022-10-28T02:05:25.482Z,14.9
2022-10-28T02:07:28.973Z,13.5
2022-10-28T02:09:32.504Z,13
2022-10-28T02:15:46.014Z,14
2022-10-28T02:20:56.290Z,12.6
2022-10-28T02:22:59.778Z,14.1
2022-10-28T02:25:06.372Z,14.8
2022-10-28T02:27:09.890Z,14.2
2022-10-28T02:29:13.343Z,14.2
2022-10-28T02:31:16.861Z,16.2
2022-10-28T02:33:20.327Z,14.4
2022-10-28T02:37:27.320Z,14.6
2022-10-28T02:39:33.899Z,16.2
2022-10-28T02:41:37.355Z,15.9
2022-10-28T02:43:40.870Z,15.1
2022-10-28T02:45:44.361Z,15.5
2022-10-28T02:47:47.859Z,15.8
2022-10-28T02:49:51.340Z,16.1
2022-10-28T02:51:54.805Z,16.9
2022-10-28T02:54:01.457Z,16.9
2022-10-28T02:56:04.928Z,16
2022-10-28T02:58:08.442Z,16.1
2022-10-28T03:00:11.956Z,15.2
2022-10-28T03:02:15.490Z,15.6
2022-10-28T03:04:18.944Z,17
2022-10-28T03:06:22.522Z,14.7
2022-10-28T03:08:29.064Z,16.9
2022-10-28T03:10:32.533Z,16.7
2022-10-28T03:12:36.054Z,16.6
2022-10-28T03:13:39.332Z,15.9
2022-10-28T03:15:43.017Z,15.7
2022-10-28T03:17:46.319Z,15.3
2022-10-28T03:19:49.820Z,15
2022-10-28T03:21:56.410Z,17.2
2022-10-28T03:23:59.898Z,17
2022-10-28T03:26:03.535Z,16.4
2022-10-28T03:28:06.907Z,15.2
2022-10-28T03:30:10.397Z,15.6
2022-10-28T03:32:14.016Z,17.4
2022-10-28T03:34:17.405Z,15.3
2022-10-28T03:36:23.985Z,16.9
2022-10-28T03:38:27.495Z,16.2
2022-10-28T03:40:31.059Z,17
2022-10-28T03:42:36.449Z,16.7
2022-10-28T03:44:38.047Z,15.4
2022-10-28T03:46:41.519Z,14.8
2022-10-28T03:48:45.017Z,16.1
2022-10-28T03:50:51.599Z,15.3
2022-10-28T03:57:03.627Z,15.3
2022-10-28T03:59:07.133Z,14.6
2022-10-28T04:03:14.088Z,13.9
2022-10-28T04:05:20.691Z,13.7
2022-10-28T04:07:24.177Z,12.6
2022-10-28T04:09:27.647Z,12.9
2022-10-28T04:10:30.962Z,13.6
2022-10-28T04:12:34.509Z,12.5
2022-10-28T04:14:37.970Z,12
2022-10-28T04:16:41.479Z,13.1
2022-10-28T04:18:48.057Z,11.5
2022-10-28T04:20:51.526Z,11
2022-10-28T04:22:57.171Z,10.6
2022-10-28T04:24:58.512Z,10.9
2022-10-28T04:27:01.995Z,10
2022-10-28T04:31:08.951Z,10.4
2022-10-28T04:33:15.512Z,10.5
2022-10-28T04:35:19.009Z,9.9
2022-10-28T04:37:22.508Z,8.9
2022-10-28T04:39:26.013Z,8.4
2022-10-28T04:41:29.506Z,7.5
2022-10-28T04:43:32.969Z,9.5
2022-10-28T04:45:36.454Z,9
2022-10-28T04:47:43.036Z,9.6
2022-10-28T04:49:46.530Z,8.7
2022-10-28T04:51:50.119Z,9.6
2022-10-28T04:53:53.547Z,8.6
2022-10-28T04:55:57.045Z,8.1
2022-10-28T04:58:00.485Z,8
2022-10-28T05:00:04.019Z,6.9
2022-10-28T05:02:10.726Z,8.3
2022-10-28T05:04:14.075Z,8.5
2022-10-28T05:06:17.579Z,7.7
2022-10-28T05:08:41.602Z,7.8
2022-10-28T05:10:45.097Z,8.6
2022-10-28T05:12:48.601Z,8.4
2022-10-28T05:14:55.222Z,7.6
2022-10-28T05:16:58.685Z,7.5
2022-10-28T05:19:02.183Z,7.2
2022-10-28T05:21:05.647Z,7.8
2022-10-28T05:23:09.132Z,7.1
2022-10-28T05:25:12.612Z,7.2
2022-10-28T05:27:16.112Z,6.9
2022-10-28T05:29:22.694Z,7.6
2022-10-28T05:31:26.226Z,8.5
2022-10-28T05:33:29.651Z,8.1
2022-10-28T05:35:33.157Z,6.9
2022-10-28T05:37:36.639Z,8.7
2022-10-28T05:39:40.125Z,8.3
2022-10-28T05:41:43.598Z,7.6
2022-10-28T05:43:50.172Z,8.2
2022-10-28T05:47:57.271Z,8
2022-10-28T05:50:00.650Z,7.9
2022-10-28T05:52:04.169Z,7.3
2022-10-28T05:54:07.612Z,6.9
2022-10-28T05:58:17.723Z,7.3
2022-10-28T06:00:21.186Z,6.7
2022-10-28T06:02:24.687Z,7.7
2022-10-28T06:03:30.962Z,7.5
2022-10-28T06:05:31.538Z,7.6
2022-10-28T06:07:34.938Z,7.3
2022-10-28T06:09:38.400Z,6.6
2022-10-28T06:11:43.393Z,7.2
2022-10-28T06:13:46.913Z,7.1
2022-10-28T06:15:50.397Z,6.4
2022-10-28T06:17:53.863Z,6.7
2022-10-28T06:19:57.376Z,7
2022-10-28T06:22:00.845Z,6.9
2022-10-28T06:24:05.759Z,6.9
2022-10-28T06:26:10.933Z,8.2
2022-10-28T06:28:14.406Z,7.4
2022-10-28T06:30:17.897Z,6.2
2022-10-28T06:32:21.387Z,7
2022-10-28T06:34:24.903Z,6.5
2022-10-28T06:36:28.361Z,6.9
2022-10-28T06:38:31.857Z,6.7
2022-10-28T06:40:38.438Z,5.5
2022-10-28T06:42:41.926Z,6.5
2022-10-28T06:44:45.437Z,7.4
2022-10-28T06:46:50.448Z,6.6
2022-10-28T06:48:53.923Z,6.8
2022-10-28T06:50:57.428Z,6.6
2022-10-28T06:53:00.913Z,7.3
2022-10-28T06:55:07.489Z,7.3
2022-10-28T06:57:10.998Z,7.3
2022-10-28T06:59:14.504Z,6.8
2022-10-28T07:00:17.882Z,7
2022-10-28T07:06:28.273Z,6
2022-10-28T07:16:48.824Z,6.1
2022-10-28T07:18:52.353Z,6.3
2022-10-28T07:20:55.895Z,6.1
2022-10-28T07:23:02.440Z,6.7
2022-10-28T07:25:05.926Z,5.7
2022-10-28T07:27:09.406Z,6.2
2022-10-28T07:29:12.918Z,6.1
2022-10-28T07:31:16.429Z,5.7
2022-10-28T07:33:19.872Z,6.4
2022-10-28T07:37:29.851Z,6.3
2022-10-28T07:41:36.816Z,6.4
2022-10-28T07:43:40.298Z,5.8
2022-10-28T07:47:47.219Z,5.4
2022-10-28T07:49:50.677Z,4.8
2022-10-28T07:51:57.207Z,5
2022-10-28T07:54:00.710Z,5
2022-10-28T07:56:04.183Z,5.4
2022-10-28T07:57:07.469Z,5.1
2022-10-28T07:59:10.920Z,4.3
2022-10-28T08:01:14.531Z,5.6
2022-10-28T08:03:17.828Z,5
2022-10-28T08:05:24.391Z,5.4
2022-10-28T08:07:27.818Z,4.9
2022-10-28T08:09:31.262Z,5.8
2022-10-28T08:11:34.747Z,5
2022-10-28T08:13:40.168Z,4.4
2022-10-28T08:15:41.611Z,5.2
2022-10-28T08:17:45.041Z,4.7
2022-10-28T08:19:51.562Z,4.1
2022-10-28T08:21:54.921Z,4.2
2022-10-28T08:23:58.338Z,4.6
2022-10-28T08:26:01.760Z,4.5
2022-10-28T08:28:05.233Z,3.9
2022-10-28T08:30:08.605Z,5.1
2022-10-28T08:32:12.044Z,3.4
2022-10-28T08:34:18.546Z,4.6
2022-10-28T08:36:21.966Z,3.8
2022-10-28T08:38:25.395Z,4.5
2022-10-28T08:40:28.782Z,3.9
2022-10-28T08:42:32.175Z,3.9
2022-10-28T08:44:35.504Z,4
2022-10-28T08:46:38.891Z,3.6
2022-10-28T08:48:45.198Z,3.9
2022-10-28T08:50:48.559Z,3.7
2022-10-28T08:55:15.843Z,4.3
2022-10-28T08:57:19.224Z,3.5
2022-10-28T08:59:22.614Z,4.6
2022-10-28T09:01:29.365Z,4.7
2022-10-28T09:03:34.367Z,3.2
2022-10-28T09:05:35.764Z,4.7
2022-10-28T09:07:39.032Z,4.3
2022-10-28T09:09:42.376Z,3.4
2022-10-28T09:11:45.622Z,3.4
2022-10-28T09:13:48.896Z,3.2
2022-10-28T09:17:58.414Z,3.4
2022-10-28T09:24:08.055Z,4.1
2022-10-28T09:26:11.279Z,3.5
2022-10-28T09:28:14.487Z,3.5
2022-10-28T09:30:20.670Z,3.5
2022-10-28T09:32:23.896Z,3.1
2022-10-28T09:34:27.133Z,3.8
2022-10-28T09:36:30.329Z,3.4
2022-10-28T09:38:33.543Z,3.1
2022-10-28T09:40:36.730Z,3.1
2022-10-28T09:44:46.181Z,3.1
2022-10-28T09:46:49.398Z,3.8
2022-10-28T09:48:54.106Z,3.2
2022-10-28T09:49:57.184Z,3.5
2022-10-28T09:52:00.369Z,4.4
2022-10-28T09:54:03.539Z,2.6
2022-10-28T10:00:16.158Z,3.5
2022-10-28T10:02:19.375Z,3.5
2022-10-28T10:06:25.648Z,3.9
2022-10-28T10:08:28.872Z,2.7
2022-10-28T10:10:32.012Z,4
2022-10-28T10:12:38.202Z,3.5
2022-10-28T10:14:41.388Z,3.2
2022-10-28T10:16:44.515Z,3.1
2022-10-28T10:18:47.694Z,3.5
2022-10-28T10:24:57.153Z,3.6
2022-10-28T10:27:03.333Z,3.5
2022-10-28T10:29:06.493Z,2.8
2022-10-28T10:31:09.626Z,3.9
2022-10-28T10:33:12.784Z,3.4
2022-10-28T10:35:15.949Z,3.2
2022-10-28T10:37:19.080Z,3.9
2022-10-28T10:39:22.221Z,3.8
2022-10-28T10:43:31.484Z,2.6
2022-10-28T10:46:37.702Z,3.1
2022-10-28T10:48:40.839Z,3.2
2022-10-28T10:50:43.961Z,3.9
2022-10-28T10:52:47.062Z,3.8
2022-10-28T10:54:53.209Z,2.5
2022-10-28T10:58:59.396Z,4.4
2022-10-28T11:01:02.502Z,3.4
2022-10-28T11:03:05.618Z,2.5
2022-10-28T11:05:08.668Z,3.9
2022-10-28T11:07:11.712Z,3.2
2022-10-28T11:09:17.826Z,3.8
2022-10-28T11:11:20.881Z,3
2022-10-28T11:13:23.962Z,3.5
2022-10-28T11:15:27.008Z,3.6
2022-10-28T11:17:30.165Z,3.1
2022-10-28T11:19:33.156Z,4.7
2022-10-28T11:21:36.221Z,3.9
2022-10-28T11:23:42.323Z,2.9
2022-10-28T11:25:45.364Z,3.5
2022-10-28T11:27:51.724Z,2.9
2022-10-28T11:29:51.524Z,3.2
2022-10-28T11:31:54.579Z,3.5
2022-10-28T11:33:57.664Z,4
2022-10-28T11:36:00.730Z,3.4
2022-10-28T11:40:09.913Z,3.9
2022-10-28T11:42:12.972Z,3.7
2022-10-28T11:43:16.022Z,4.2
2022-10-28T11:45:19.092Z,3.7
2022-10-28T11:47:22.169Z,4.3
2022-10-28T11:49:25.290Z,3.7
2022-10-28T11:51:31.413Z,3.5
2022-10-28T11:53:34.485Z,3
2022-10-28T11:55:37.614Z,3.1
2022-10-28T11:57:40.675Z,2.9
2022-10-28T11:59:43.771Z,3.5
2022-10-28T12:01:47.043Z,5.1
2022-10-28T12:03:49.990Z,2.7
2022-10-28T12:05:56.145Z,3
2022-10-28T12:07:59.247Z,3.2
2022-10-28T12:10:02.524Z,2.8
2022-10-28T12:12:05.640Z,3.8
2022-10-28T12:14:08.758Z,3.6
2022-10-28T12:16:11.840Z,2.3
2022-10-28T12:18:14.968Z,2.9
2022-10-28T12:20:21.120Z,3.6
2022-10-28T12:22:24.215Z,2.9
2022-10-28T12:24:27.484Z,4
2022-10-28T12:26:30.455Z,5.2
2022-10-28T12:28:33.567Z,3.3
2022-10-28T12:30:36.664Z,3.2
2022-10-28T12:32:39.763Z,3.1
2022-10-28T12:34:45.930Z,3.6
2022-10-28T12:36:49.061Z,3.5
2022-10-28T12:38:52.158Z,3.2
2022-10-28T12:41:15.931Z,4.3
2022-10-28T12:43:19.080Z,3.3
2022-10-28T12:45:22.142Z,3.6
2022-10-28T12:47:28.303Z,2.6
2022-10-28T12:49:31.429Z,4.3
2022-10-28T12:51:34.535Z,2.7
2022-10-28T12:53:37.616Z,3.5
2022-10-28T12:55:40.870Z,3.1
2022-10-28T12:57:43.859Z,3.4
2022-10-28T12:59:46.940Z,3.3
2022-10-28T13:01:53.230Z,3.9
2022-10-28T13:03:56.213Z,3.9
2022-10-28T13:05:59.330Z,3.1
2022-10-28T13:10:05.565Z,3.7
2022-10-28T13:12:08.669Z,3.4
2022-10-28T13:14:11.937Z,3.4
2022-10-28T13:16:17.940Z,3.4
2022-10-28T13:18:21.036Z,3.4
2022-10-28T13:20:24.154Z,3.4
2022-10-28T13:24:30.390Z,3.6
2022-10-28T13:26:33.553Z,3.1
2022-10-28T13:28:36.649Z,3.6
2022-10-28T13:30:42.777Z,3.8
2022-10-28T13:32:45.912Z,3.1
2022-10-28T13:34:49.134Z,4.1
2022-10-28T13:37:55.606Z,3.9
2022-10-28T13:39:58.372Z,3.1
2022-10-28T13:44:08.535Z,3.9
2022-10-28T13:46:11.681Z,3.7
2022-10-28T13:48:14.768Z,2.7
2022-10-28T13:50:17.937Z,3.8
2022-10-28T13:52:21.085Z,3.5
2022-10-28T13:56:27.374Z,3.8
2022-10-28T13:58:33.516Z,2.4
2022-10-28T14:02:40.089Z,4.1
2022-10-28T14:04:42.972Z,2.9
2022-10-28T14:08:49.293Z,3.1
2022-10-28T14:12:59.148Z,4.3
2022-10-28T14:19:08.099Z,3.4
2022-10-28T14:25:19.917Z,3.8
2022-10-28T14:29:26.953Z,3.5
2022-10-28T14:31:30.257Z,3.3
2022-10-28T14:32:33.329Z,3
2022-10-28T14:34:36.513Z,3.5
2022-10-28T14:36:39.694Z,3.3
2022-10-28T14:38:42.857Z,2.9
2022-10-28T14:40:49.077Z,2.9
2022-10-28T14:42:52.245Z,4.5
2022-10-28T14:44:55.425Z,4.6
2022-10-28T14:46:58.630Z,4.1
2022-10-28T14:49:01.806Z,3.6
2022-10-28T14:51:04.987Z,4.4
2022-10-28T14:53:08.185Z,3.3
2022-10-28T14:55:14.392Z,3.7
2022-10-28T14:57:17.591Z,4
2022-10-28T14:59:20.792Z,4.5
2022-10-28T15:01:24.123Z,3.7
2022-10-28T15:03:27.178Z,4.2
2022-10-28T15:05:30.379Z,3.7
2022-10-28T15:07:37.874Z,3.6
2022-10-28T15:09:39.788Z,3.9
2022-10-28T15:15:49.374Z,3.7
2022-10-28T15:21:59.374Z,18.8
2022-10-28T15:24:05.220Z,4.9
2022-10-28T15:26:08.402Z,3.6
2022-10-28T15:28:11.612Z,4.1
2022-10-28T15:29:14.729Z,3.6
2022-10-28T15:31:17.941Z,4
2022-10-28T15:33:21.172Z,4.1
2022-10-28T15:35:24.393Z,3.9
2022-10-28T15:37:30.779Z,4.5
2022-10-28T15:39:33.871Z,4.6
2022-10-28T15:41:37.076Z,3.8
2022-10-28T15:43:41.862Z,3.5
2022-10-28T15:45:45.036Z,3.3
2022-10-28T15:47:48.240Z,3.9
2022-10-28T15:49:51.483Z,4
2022-10-28T15:51:57.722Z,4.5
2022-10-28T15:54:00.938Z,5.5
2022-10-28T15:56:07.541Z,7.7
2022-10-28T15:58:07.479Z,4.1
2022-10-28T16:00:10.736Z,4.7
2022-10-28T16:02:14.199Z,4.8
2022-10-28T16:04:17.307Z,4.7
2022-10-28T16:06:23.688Z,5.5
2022-10-28T16:08:26.918Z,4.1
2022-10-28T16:10:30.262Z,4.1
2022-10-28T16:12:33.611Z,4.6
2022-10-28T16:14:36.854Z,8.9
2022-10-28T16:16:40.207Z,5
2022-10-28T16:20:49.912Z,4.4
2022-10-28T16:22:53.144Z,4.2
2022-10-28T16:24:56.488Z,5.6
2022-10-28T16:27:20.293Z,5.6
2022-10-28T16:29:23.998Z,5.3
2022-10-28T16:31:27.355Z,4.2
2022-10-28T16:33:33.661Z,5.4
2022-10-28T16:35:36.870Z,6.3
2022-10-28T16:37:44.479Z,5.1
2022-10-28T16:39:43.488Z,3.4
2022-10-28T16:41:46.747Z,4.1
2022-10-28T16:43:49.968Z,4.1
2022-10-28T16:45:53.234Z,4.5
2022-10-28T16:47:59.478Z,4.6
2022-10-28T16:50:02.782Z,5.5
2022-10-28T16:52:06.054Z,6
2022-10-28T16:54:09.303Z,6.8
2022-10-28T16:56:14.011Z,4.1
2022-10-28T16:58:15.788Z,3.3
2022-10-28T17:00:19.017Z,4
2022-10-28T17:02:25.406Z,4.2
2022-10-28T17:04:28.545Z,3.9
2022-10-28T17:10:38.207Z,4.7
2022-10-28T17:12:41.451Z,3.4
2022-10-28T17:14:44.796Z,3.5
2022-10-28T17:20:57.575Z,4.3
2022-10-28T17:22:00.735Z,4.1
2022-10-28T17:24:03.954Z,3.7
2022-10-28T17:26:07.303Z,4.4
2022-10-28T17:28:10.519Z,6.3
2022-10-28T17:30:17.111Z,5.8
2022-10-28T17:32:20.034Z,3.9
2022-10-28T17:34:23.224Z,3.7
2022-10-28T17:36:26.468Z,3.6
2022-10-28T17:38:29.708Z,3.5
2022-10-28T17:40:32.988Z,4.2
2022-10-28T17:42:36.192Z,3.1
2022-10-28T17:44:42.548Z,4
2022-10-28T17:46:45.844Z,4.1
2022-10-28T17:48:49.124Z,4.7
2022-10-28T17:50:52.458Z,6.2
2022-10-28T17:52:56.076Z,6.4
2022-10-28T17:54:59.024Z,4.7
2022-10-28T17:57:02.237Z,5.1
2022-10-28T17:59:08.662Z,6.4
2022-10-28T18:01:12.125Z,4.4
2022-10-28T18:05:18.697Z,4.6
2022-10-28T18:11:28.652Z,4.2
2022-10-28T18:13:35.032Z,5.4
2022-10-28T18:15:38.297Z,6.5
2022-10-28T18:17:41.529Z,6.4
2022-10-28T18:18:44.689Z,4.7
2022-10-28T18:20:48.033Z,6.5
2022-10-28T18:22:51.411Z,5.7
2022-10-28T18:24:54.765Z,6.4
2022-10-28T18:27:01.142Z,5.4
2022-10-28T18:29:04.538Z,5.1
2022-10-28T18:31:07.907Z,4.8
2022-10-28T18:33:11.256Z,5.7
2022-10-28T18:35:14.663Z,4.9
2022-10-28T18:37:18.010Z,4.6
2022-10-28T18:39:21.371Z,5.7
2022-10-28T18:41:27.882Z,5.1
2022-10-28T18:43:31.267Z,4.5
2022-10-28T18:45:34.797Z,6.8
2022-10-28T18:47:38.025Z,4.8
2022-10-28T18:49:41.433Z,5.5
2022-10-28T18:51:44.836Z,7.1
2022-10-28T18:53:48.184Z,18.6
2022-10-28T18:55:54.624Z,8.3
2022-10-28T18:57:57.937Z,6.4
2022-10-28T19:00:18.369Z,7.4
2022-10-28T19:04:08.059Z,9.8
2022-10-28T19:06:11.383Z,5.8
2022-10-28T19:10:21.285Z,6.5
2022-10-28T19:12:24.686Z,6.6
2022-10-28T19:14:28.107Z,6.7
2022-10-28T19:15:31.357Z,6.1
2022-10-28T19:17:34.775Z,7.6
2022-10-28T19:19:39.321Z,6.7
2022-10-28T19:21:41.487Z,6.8
2022-10-28T19:23:48.009Z,6.5
2022-10-28T19:25:51.545Z,5.9
2022-10-28T19:27:54.797Z,6.1
2022-10-28T19:29:58.228Z,6.3
2022-10-28T19:32:01.668Z,5.8
2022-10-28T19:34:05.097Z,6.4
2022-10-28T19:36:08.503Z,6.2
2022-10-28T19:38:15.026Z,7.3
2022-10-28T19:40:18.435Z,7.5
2022-10-28T19:42:21.842Z,7.5
2022-10-28T19:44:25.239Z,6.5
2022-10-28T19:46:28.674Z,7.7
2022-10-28T19:48:32.101Z,8.4
2022-10-28T19:52:42.063Z,7.3
2022-10-28T19:54:45.480Z,8.9
2022-10-28T19:56:48.929Z,8.2
2022-10-28T19:58:52.369Z,7.9
2022-10-28T20:00:55.818Z,8.8
2022-10-28T20:02:59.258Z,8.8
2022-10-28T20:05:02.688Z,7.7
2022-10-28T20:07:09.224Z,8.4
2022-10-28T20:09:12.637Z,7.2
2022-10-28T20:11:19.996Z,7.1
2022-10-28T20:15:38.653Z,7.1
2022-10-28T20:17:42.087Z,7.6
2022-10-28T20:19:48.620Z,8.7
2022-10-28T20:21:52.065Z,5.2
2022-10-28T20:23:55.818Z,8.9
2022-10-28T20:25:58.923Z,6.6
2022-10-28T20:28:02.383Z,4.8
2022-10-28T20:30:05.834Z,5.1
2022-10-28T20:32:09.300Z,4.7
2022-10-28T20:34:15.773Z,5.6
2022-10-28T20:36:19.211Z,4.4
2022-10-28T20:38:22.644Z,3.9
2022-10-28T20:42:29.477Z,5.3
2022-10-28T20:44:32.910Z,5
2022-10-28T20:46:36.348Z,4.6
2022-10-28T20:48:42.877Z,4.7
2022-10-28T20:50:46.283Z,4.7
2022-10-28T20:52:49.778Z,5
2022-10-28T20:54:53.201Z,4.7
2022-10-28T20:56:56.634Z,4.7
2022-10-28T20:59:00.067Z,3.9
2022-10-28T21:01:03.482Z,4
2022-10-28T21:03:10.125Z,6
2022-10-28T21:05:13.478Z,5.7
2022-10-28T21:07:16.923Z,4.3
2022-10-28T21:10:23.642Z,4.6
2022-10-28T21:14:30.839Z,5
2022-10-28T21:16:37.373Z,5.7
2022-10-28T21:18:40.838Z,4.9
2022-10-28T21:20:44.289Z,5.7
2022-10-28T21:22:47.741Z,5.2
2022-10-28T21:24:51.218Z,6.1
2022-10-28T21:26:54.690Z,6.1
2022-10-28T21:28:58.122Z,5.8
2022-10-28T21:35:11.596Z,9.4
2022-10-28T21:37:15.050Z,7.8
2022-10-28T21:41:23.502Z,6.5
2022-10-28T21:43:26.976Z,6.6
2022-10-28T21:45:33.583Z,6.3
2022-10-28T21:47:37.014Z,5.1
2022-10-28T21:49:40.473Z,5.7
2022-10-28T21:51:43.950Z,6.7
2022-10-28T21:53:47.401Z,5.2
2022-10-28T21:55:51.368Z,4.8
2022-10-28T21:57:54.786Z,5.6
2022-10-28T22:00:01.076Z,4.8
2022-10-28T22:02:04.501Z,6.1
2022-10-28T22:04:07.869Z,5.4
2022-10-28T22:05:11.167Z,5.7
2022-10-28T22:09:18.122Z,6.7
2022-10-28T22:13:28.171Z,7.4
2022-10-28T22:15:31.636Z,5.9
2022-10-28T22:19:38.597Z,4.8
2022-10-28T22:29:59.078Z,4.5
2022-10-28T22:34:06.063Z,5.8
2022-10-28T22:36:09.527Z,4.8
2022-10-28T22:40:16.478Z,4.2
2022-10-28T22:42:23.055Z,5
2022-10-28T22:44:26.560Z,5.2
2022-10-28T22:46:30.070Z,4.5
2022-10-28T22:48:33.546Z,4.6
2022-10-28T22:50:37.038Z,6
2022-10-28T22:52:40.520Z,5.2
2022-10-28T22:54:44.014Z,4.6
2022-10-28T22:56:50.555Z,5.9
2022-10-28T22:58:54.050Z,6
2022-10-28T23:00:57.524Z,5.3
2022-10-28T23:02:00.904Z,5.2
2022-10-28T23:04:04.284Z,5.3
2022-10-28T23:06:07.785Z,5.2
2022-10-28T23:08:11.295Z,5.5
2022-10-28T23:10:17.848Z,6.2
2022-10-28T23:12:21.327Z,6
2022-10-28T23:14:24.805Z,5.8
2022-10-28T23:16:28.304Z,5.4
2022-10-28T23:18:31.789Z,4.5
2022-10-28T23:20:35.279Z,5.5
2022-10-28T23:22:38.737Z,6.1
2022-10-28T23:24:45.293Z,5.4
2022-10-28T23:26:48.862Z,6.1
2022-10-28T23:28:52.250Z,5.1
2022-10-28T23:30:55.765Z,5.8
2022-10-28T23:32:59.230Z,6.1
2022-10-28T23:35:02.734Z,6.6
2022-10-28T23:39:12.809Z,6.1
2022-10-28T23:43:19.742Z,6.9
2022-10-28T23:45:23.232Z,5.3
2022-10-28T23:47:26.699Z,6.4
2022-10-28T23:49:30.211Z,5.3
2022-10-28T23:51:33.731Z,6.3
2022-10-28T23:53:40.321Z,6.5
2022-10-28T23:55:43.797Z,5.1
